createdAt,value
2022-12-11T00:00:29.583Z,97529.94
2022-12-11T00:02:34.204Z,97526.50
2022-12-11T00:04:39.114Z,97530.72
2022-12-11T00:06:43.891Z,97524.84
2022-12-11T00:08:49.036Z,97530.03
2022-12-11T00:10:53.654Z,97538.81
2022-12-11T00:12:58.521Z,97538.00
2022-12-11T00:15:06.158Z,97542.28
2022-12-11T00:17:11.029Z,97542.38
2022-12-11T00:19:15.833Z,97543.19
2022-12-11T00:21:20.630Z,97543.03
2022-12-11T00:23:25.432Z,97549.72
2022-12-11T00:25:30.242Z,97539.34
2022-12-11T00:27:35.025Z,97546.09
2022-12-11T00:29:40.296Z,97535.81
2022-12-11T00:31:47.722Z,97532.25
2022-12-11T00:33:53.838Z,97539.88
2022-12-11T00:35:59.540Z,97541.47
2022-12-11T00:38:04.301Z,97545.72
2022-12-11T00:40:10.698Z,97542.31
2022-12-11T00:42:16.212Z,97553.47
2022-12-11T00:44:21.035Z,97550.09
2022-12-11T00:46:25.900Z,97557.13
2022-12-11T00:48:33.363Z,97565.06
2022-12-11T00:50:38.744Z,97558.56
2022-12-11T00:52:43.547Z,97562.97
2022-12-11T00:54:48.440Z,97568.22
2022-12-11T00:56:53.471Z,97571.66
2022-12-11T00:58:58.278Z,97576.94
2022-12-11T01:01:09.018Z,97580.25
2022-12-11T01:03:17.070Z,97579.19
2022-12-11T01:05:24.587Z,97578.09
2022-12-11T01:07:29.492Z,97578.97
2022-12-11T01:09:46.693Z,97587.63
2022-12-11T01:11:51.627Z,97587.72
2022-12-11T01:13:56.379Z,97592.97
2022-12-11T01:16:01.747Z,97598.97
2022-12-11T01:18:07.005Z,97599.28
2022-12-11T01:20:12.153Z,97593.38
2022-12-11T01:22:19.497Z,97592.50
2022-12-11T01:24:24.397Z,97594.91
2022-12-11T01:26:30.736Z,97601.66
2022-12-11T01:28:35.602Z,97593.91
2022-12-11T01:30:40.549Z,97593.88
2022-12-11T01:32:45.761Z,97586.16
2022-12-11T01:34:50.299Z,97588.09
2022-12-11T01:36:55.319Z,97595.94
2022-12-11T01:39:02.681Z,97600.28
2022-12-11T01:41:07.811Z,97595.19
2022-12-11T01:43:13.961Z,97595.44
2022-12-11T01:45:42.086Z,97607.56
2022-12-11T01:47:47.221Z,97604.13
2022-12-11T01:49:51.846Z,97605.94
2022-12-11T01:52:00.892Z,97607.69
2022-12-11T01:54:10.675Z,97610.97
2022-12-11T01:56:16.128Z,97607.28
2022-12-11T01:58:23.597Z,97602.81
2022-12-11T02:00:28.320Z,97595.78
2022-12-11T02:02:34.289Z,97595.59
2022-12-11T02:04:41.816Z,97598.09
2022-12-11T02:06:48.699Z,97604.78
2022-12-11T02:08:53.464Z,97597.22
2022-12-11T02:11:14.338Z,97601.44
2022-12-11T02:13:32.696Z,97608.19
2022-12-11T02:15:42.361Z,97605.47
2022-12-11T02:17:53.947Z,97607.91
2022-12-11T02:20:07.380Z,97598.44
2022-12-11T02:22:17.092Z,97595.88
2022-12-11T02:24:41.027Z,97590.97
2022-12-11T02:27:14.265Z,97598.97
2022-12-11T02:29:25.918Z,97599.19
2022-12-11T02:31:37.491Z,97597.63
2022-12-11T02:33:48.224Z,97596.94
2022-12-11T02:35:53.715Z,97594.47
2022-12-11T02:38:04.337Z,97603.94
2022-12-11T02:40:13.901Z,97594.53
2022-12-11T02:42:19.258Z,97596.25
2022-12-11T02:44:30.254Z,97594.72
2022-12-11T02:46:37.607Z,97597.38
2022-12-11T02:48:44.694Z,97595.81
2022-12-11T02:50:51.634Z,97595.84
2022-12-11T02:52:59.402Z,97597.44
2022-12-11T02:55:06.289Z,97588.97
2022-12-11T02:57:14.921Z,97597.63
2022-12-11T02:59:23.522Z,97598.63
2022-12-11T03:01:31.406Z,97594.41
2022-12-11T03:03:36.399Z,97597.78
2022-12-11T03:05:42.278Z,97594.41
2022-12-11T03:07:47.875Z,97593.59
2022-12-11T03:09:53.089Z,97594.47
2022-12-11T03:11:57.637Z,97599.72
2022-12-11T03:14:03.383Z,97603.13
2022-12-11T03:16:18.961Z,97603.91
2022-12-11T03:18:33.795Z,97600.56
2022-12-11T03:20:43.993Z,97603.13
2022-12-11T03:22:53.476Z,97607.34
2022-12-11T03:25:04.854Z,97606.50
2022-12-11T03:27:18.445Z,97610.69
2022-12-11T03:29:26.229Z,97611.47
2022-12-11T03:31:34.740Z,97601.91
2022-12-11T03:33:44.706Z,97593.34
2022-12-11T03:35:54.783Z,97594.22
2022-12-11T03:38:03.393Z,97595.06
2022-12-11T03:40:13.845Z,97599.38
2022-12-11T03:42:22.264Z,97592.59
2022-12-11T03:44:27.947Z,97592.72
2022-12-11T03:46:36.260Z,97602.22
2022-12-11T03:48:47.583Z,97595.50
2022-12-11T03:50:53.529Z,97596.44
2022-12-11T03:53:00.995Z,97601.53
2022-12-11T03:55:08.290Z,97598.94
2022-12-11T03:57:16.884Z,97597.34
2022-12-11T03:59:21.727Z,97600.66
2022-12-11T04:01:26.512Z,97596.34
2022-12-11T04:03:31.495Z,97596.44
2022-12-11T04:05:39.200Z,97596.47
2022-12-11T04:07:43.995Z,97599.94
2022-12-11T04:09:48.924Z,97598.34
2022-12-11T04:11:53.762Z,97598.38
2022-12-11T04:14:10.784Z,97594.16
2022-12-11T04:16:15.799Z,97602.63
2022-12-11T04:18:33.047Z,97600.00
2022-12-11T04:21:01.635Z,97599.16
2022-12-11T04:23:19.606Z,97592.34
2022-12-11T04:25:24.456Z,97599.25
2022-12-11T04:27:42.227Z,97597.50
2022-12-11T04:29:47.089Z,97601.72
2022-12-11T04:31:52.339Z,97598.34
2022-12-11T04:33:57.136Z,97594.91
2022-12-11T04:36:04.603Z,97601.66
2022-12-11T04:38:09.372Z,97595.63
2022-12-11T04:40:18.755Z,97596.44
2022-12-11T04:42:23.619Z,97589.75
2022-12-11T04:44:28.395Z,97593.34
2022-12-11T04:46:33.319Z,97589.03
2022-12-11T04:48:39.121Z,97588.25
2022-12-11T04:50:43.927Z,97589.91
2022-12-11T04:52:52.514Z,97588.25
2022-12-11T04:54:57.362Z,97595.03
2022-12-11T04:57:02.112Z,97590.69
2022-12-11T04:59:07.037Z,97593.25
2022-12-11T05:01:12.455Z,97583.88
2022-12-11T05:03:17.362Z,97582.13
2022-12-11T05:05:22.390Z,97587.22
2022-12-11T05:07:27.263Z,97590.66
2022-12-11T05:09:34.612Z,97583.81
2022-12-11T05:11:39.560Z,97579.47
2022-12-11T05:13:48.174Z,97575.94
2022-12-11T05:15:53.054Z,97576.00
2022-12-11T05:17:58.043Z,97580.34
2022-12-11T05:20:02.895Z,97572.66
2022-12-11T05:22:07.636Z,97576.09
2022-12-11T05:24:12.433Z,97575.31
2022-12-11T05:26:21.441Z,97577.91
2022-12-11T05:28:27.683Z,97577.06
2022-12-11T05:30:32.508Z,97581.38
2022-12-11T05:32:37.314Z,97577.94
2022-12-11T05:34:42.323Z,97576.22
2022-12-11T05:36:47.383Z,97569.38
2022-12-11T05:38:53.208Z,97566.78
2022-12-11T05:41:02.251Z,97559.91
2022-12-11T05:43:09.663Z,97555.59
2022-12-11T05:45:14.607Z,97555.50
2022-12-11T05:47:20.342Z,97555.47
2022-12-11T05:49:30.652Z,97545.28
2022-12-11T05:51:36.834Z,97549.50
2022-12-11T05:53:43.249Z,97553.66
2022-12-11T05:55:48.056Z,97546.84
2022-12-11T05:57:52.852Z,97547.66
2022-12-11T06:00:00.169Z,97547.63
2022-12-11T06:02:05.177Z,97545.06
2022-12-11T06:04:12.148Z,97546.72
2022-12-11T06:06:17.816Z,97555.19
2022-12-11T06:08:22.754Z,97544.94
2022-12-11T06:10:27.618Z,97559.41
2022-12-11T06:12:32.742Z,97550.91
2022-12-11T06:14:37.598Z,97555.34
2022-12-11T06:16:45.072Z,97546.06
2022-12-11T06:18:50.318Z,97550.50
2022-12-11T06:20:54.851Z,97549.75
2022-12-11T06:22:59.643Z,97555.78
2022-12-11T06:25:04.610Z,97559.19
2022-12-11T06:27:09.479Z,97557.47
2022-12-11T06:29:14.460Z,97554.97
2022-12-11T06:31:19.853Z,97550.69
2022-12-11T06:33:27.312Z,97555.81
2022-12-11T06:35:32.954Z,97549.88
2022-12-11T06:37:40.823Z,97550.75
2022-12-11T06:39:45.674Z,97546.56
2022-12-11T06:41:50.455Z,97548.34
2022-12-11T06:43:55.384Z,97543.34
2022-12-11T06:46:03.772Z,97544.22
2022-12-11T06:48:09.870Z,97549.31
2022-12-11T06:50:17.308Z,97545.84
2022-12-11T06:52:22.485Z,97554.44
2022-12-11T06:54:28.569Z,97555.41
2022-12-11T06:56:33.412Z,97560.56
2022-12-11T06:58:39.520Z,97553.72
2022-12-11T07:00:44.430Z,97555.44
2022-12-11T07:02:49.293Z,97564.84
2022-12-11T07:04:55.411Z,97559.75
2022-12-11T07:07:02.886Z,97571.66
2022-12-11T07:09:08.570Z,97571.63
2022-12-11T07:11:15.350Z,97572.41
2022-12-11T07:13:20.253Z,97567.34
2022-12-11T07:15:25.046Z,97574.22
2022-12-11T07:17:31.107Z,97573.34
2022-12-11T07:19:35.928Z,97567.34
2022-12-11T07:21:40.894Z,97562.28
2022-12-11T07:23:48.891Z,97558.97
2022-12-11T07:25:53.786Z,97568.44
2022-12-11T07:27:58.582Z,97572.66
2022-12-11T07:30:03.428Z,97571.03
2022-12-11T07:32:09.231Z,97573.69
2022-12-11T07:34:15.710Z,97575.47
2022-12-11T07:36:20.513Z,97572.94
2022-12-11T07:38:25.282Z,97574.59
2022-12-11T07:40:32.710Z,97572.75
2022-12-11T07:42:41.389Z,97582.00
2022-12-11T07:44:49.832Z,97577.75
2022-12-11T07:46:54.739Z,97575.09
2022-12-11T07:49:00.937Z,97575.00
2022-12-11T07:51:12.864Z,97574.91
2022-12-11T07:53:17.939Z,97576.63
2022-12-11T07:55:22.688Z,97586.00
2022-12-11T07:57:30.425Z,97584.38
2022-12-11T07:59:35.464Z,97584.50
2022-12-11T08:01:42.611Z,97584.47
2022-12-11T08:03:47.619Z,97581.78
2022-12-11T08:05:53.486Z,97572.31
2022-12-11T08:07:58.379Z,97565.44
2022-12-11T08:10:04.291Z,97564.59
2022-12-11T08:12:09.421Z,97572.22
2022-12-11T08:14:18.448Z,97563.59
2022-12-11T08:16:23.536Z,97562.78
2022-12-11T08:18:28.576Z,97572.13
2022-12-11T08:20:33.877Z,97569.41
2022-12-11T08:22:38.764Z,97561.56
2022-12-11T08:24:43.606Z,97563.06
2022-12-11T08:26:48.572Z,97556.91
2022-12-11T08:28:53.768Z,97555.03
2022-12-11T08:31:01.262Z,97557.72
2022-12-11T08:33:06.655Z,97549.47
2022-12-11T08:35:12.613Z,97556.41
2022-12-11T08:37:17.646Z,97556.34
2022-12-11T08:39:22.506Z,97564.03
2022-12-11T08:41:29.005Z,97559.88
2022-12-11T08:43:36.175Z,97560.75
2022-12-11T08:45:41.487Z,97563.53
2022-12-11T08:47:48.925Z,97565.28
2022-12-11T08:49:53.734Z,97572.16
2022-12-11T08:51:58.695Z,97576.25
2022-12-11T08:54:04.122Z,97576.25
2022-12-11T08:56:11.080Z,97577.94
2022-12-11T08:58:15.871Z,97570.16
2022-12-11T09:00:21.559Z,97570.97
2022-12-11T09:02:26.488Z,97570.06
2022-12-11T09:04:34.138Z,97576.84
2022-12-11T09:06:38.991Z,97570.88
2022-12-11T09:08:50.383Z,97566.59
2022-12-11T09:10:57.317Z,97571.50
2022-12-11T09:13:02.275Z,97574.06
2022-12-11T09:15:08.055Z,97569.00
2022-12-11T09:17:12.864Z,97572.59
2022-12-11T09:19:18.567Z,97568.16
2022-12-11T09:21:28.056Z,97560.50
2022-12-11T09:23:32.992Z,97572.47
2022-12-11T09:25:37.766Z,97575.06
2022-12-11T09:27:49.436Z,97573.31
2022-12-11T09:29:54.270Z,97568.13
2022-12-11T09:31:59.146Z,97565.56
2022-12-11T09:34:08.274Z,97573.19
2022-12-11T09:36:13.852Z,97580.06
2022-12-11T09:38:21.238Z,97577.56
2022-12-11T09:40:26.391Z,97569.00
2022-12-11T09:42:35.567Z,97568.91
2022-12-11T09:44:46.314Z,97567.16
2022-12-11T09:46:51.886Z,97565.50
2022-12-11T09:48:57.726Z,97566.63
2022-12-11T09:51:09.151Z,97571.13
2022-12-11T09:53:19.392Z,97566.75
2022-12-11T09:55:29.310Z,97558.00
2022-12-11T09:57:44.588Z,97559.59
2022-12-11T10:00:05.990Z,97559.56
2022-12-11T10:02:25.898Z,97548.34
2022-12-11T10:04:41.173Z,97544.09
2022-12-11T10:06:51.535Z,97545.78
2022-12-11T10:09:06.335Z,97544.28
2022-12-11T10:11:34.701Z,97542.63
2022-12-11T10:13:46.938Z,97543.63
2022-12-11T10:15:57.731Z,97532.41
2022-12-11T10:18:05.310Z,97535.44
2022-12-11T10:20:22.972Z,97530.97
2022-12-11T10:22:32.742Z,97537.03
2022-12-11T10:25:12.964Z,97532.63
2022-12-11T10:27:20.079Z,97530.78
2022-12-11T10:29:24.982Z,97538.28
2022-12-11T10:31:41.195Z,97536.50
2022-12-11T10:33:56.919Z,97533.16
2022-12-11T10:36:02.159Z,97529.63
2022-12-11T10:38:18.551Z,97532.22
2022-12-11T10:40:24.953Z,97526.31
2022-12-11T10:42:32.334Z,97538.19
2022-12-11T10:44:37.750Z,97531.38
2022-12-11T10:46:42.615Z,97526.16
2022-12-11T10:48:53.435Z,97519.50
2022-12-11T10:51:05.271Z,97517.78
2022-12-11T10:53:24.155Z,97513.59
2022-12-11T10:55:32.088Z,97507.78
2022-12-11T10:57:42.045Z,97523.34
2022-12-11T10:59:49.719Z,97505.38
2022-12-11T11:01:54.803Z,97506.91
2022-12-11T11:04:03.193Z,97500.00
2022-12-11T11:06:10.251Z,97500.94
2022-12-11T11:08:19.363Z,97492.66
2022-12-11T11:10:24.472Z,97494.53
2022-12-11T11:12:30.540Z,97493.78
2022-12-11T11:14:37.971Z,97493.75
2022-12-11T11:16:44.288Z,97492.09
2022-12-11T11:18:55.935Z,97486.09
2022-12-11T11:21:01.534Z,97485.22
2022-12-11T11:23:16.200Z,97488.38
2022-12-11T11:25:23.787Z,97481.44
2022-12-11T11:27:34.194Z,97481.38
2022-12-11T11:29:41.784Z,97482.38
2022-12-11T11:31:46.615Z,97485.13
2022-12-11T11:33:58.829Z,97485.06
2022-12-11T11:36:06.273Z,97483.59
2022-12-11T11:38:20.497Z,97477.22
2022-12-11T11:40:30.519Z,97480.66
2022-12-11T11:42:46.160Z,97483.19
2022-12-11T11:45:05.533Z,97474.50
2022-12-11T11:47:17.180Z,97471.81
2022-12-11T11:49:29.008Z,97471.09
2022-12-11T11:51:38.888Z,97471.81
2022-12-11T11:53:43.902Z,97469.06
2022-12-11T11:55:57.138Z,97459.75
2022-12-11T11:58:08.808Z,97460.59
2022-12-11T12:00:28.862Z,97461.38
2022-12-11T12:02:38.910Z,97457.28
2022-12-11T12:04:44.420Z,97446.06
2022-12-11T12:07:12.359Z,97444.09
2022-12-11T12:09:29.239Z,97445.72
2022-12-11T12:11:40.713Z,97444.72
2022-12-11T12:13:52.692Z,97441.38
2022-12-11T12:16:02.916Z,97436.25
2022-12-11T12:18:18.597Z,97437.00
2022-12-11T12:20:33.699Z,97435.38
2022-12-11T12:23:00.869Z,97435.69
2022-12-11T12:25:18.465Z,97431.63
2022-12-11T12:27:51.655Z,97434.47
2022-12-11T12:30:01.947Z,97430.16
2022-12-11T12:32:17.142Z,97426.94
2022-12-11T12:34:35.571Z,97432.13
2022-12-11T12:36:49.110Z,97423.78
2022-12-11T12:38:57.831Z,97427.25
2022-12-11T12:41:14.276Z,97433.25
2022-12-11T12:43:37.237Z,97426.59
2022-12-11T12:45:51.738Z,97422.31
2022-12-11T12:47:59.772Z,97418.91
2022-12-11T12:50:08.055Z,97429.16
2022-12-11T12:52:18.211Z,97428.16
2022-12-11T12:54:27.426Z,97410.19
2022-12-11T12:56:35.145Z,97414.50
2022-12-11T12:58:45.531Z,97420.47
2022-12-11T13:00:50.932Z,97419.50
2022-12-11T13:02:59.245Z,97421.06
2022-12-11T13:05:09.764Z,97418.47
2022-12-11T13:07:18.916Z,97416.84
2022-12-11T13:09:26.552Z,97418.59
2022-12-11T13:11:36.738Z,97420.94
2022-12-11T13:13:44.003Z,97416.59
2022-12-11T13:15:49.318Z,97422.47
2022-12-11T13:17:54.291Z,97414.09
2022-12-11T13:20:26.875Z,97417.56
2022-12-11T13:22:31.762Z,97414.09
2022-12-11T13:24:37.076Z,97411.47
2022-12-11T13:26:42.587Z,97408.66
2022-12-11T13:28:51.963Z,97413.69
2022-12-11T13:31:27.458Z,97415.25
2022-12-11T13:33:33.402Z,97413.41
2022-12-11T13:35:42.071Z,97413.22
2022-12-11T13:37:49.232Z,97413.16
2022-12-11T13:39:55.016Z,97403.13
2022-12-11T13:42:04.102Z,97406.69
2022-12-11T13:44:10.079Z,97401.41
2022-12-11T13:46:17.685Z,97403.69
2022-12-11T13:48:28.647Z,97402.75
2022-12-11T13:50:37.085Z,97400.03
2022-12-11T13:52:44.505Z,97396.63
2022-12-11T13:54:54.017Z,97404.84
2022-12-11T13:57:04.939Z,97404.94
2022-12-11T13:59:24.178Z,97406.38
2022-12-11T14:01:33.048Z,97412.69
2022-12-11T14:03:38.687Z,97415.41
2022-12-11T14:05:44.776Z,97418.13
2022-12-11T14:07:54.804Z,97419.13
2022-12-11T14:10:05.809Z,97425.97
2022-12-11T14:12:18.627Z,97426.81
2022-12-11T14:14:27.538Z,97422.66
2022-12-11T14:16:33.565Z,97426.91
2022-12-11T14:18:39.597Z,97426.00
2022-12-11T14:20:45.281Z,97424.34
2022-12-11T14:22:53.172Z,97424.34
2022-12-11T14:24:59.764Z,97426.94
2022-12-11T14:27:04.875Z,97433.72
2022-12-11T14:29:09.853Z,97426.19
2022-12-11T14:31:18.854Z,97442.38
2022-12-11T14:33:26.692Z,97444.94
2022-12-11T14:35:38.947Z,97447.50
2022-12-11T14:37:44.613Z,97445.06
2022-12-11T14:39:59.636Z,97445.84
2022-12-11T14:42:07.619Z,97449.25
2022-12-11T14:44:18.306Z,97443.28
2022-12-11T14:46:28.612Z,97443.34
2022-12-11T14:48:38.536Z,97447.59
2022-12-11T14:50:48.726Z,97444.25
2022-12-11T14:52:56.747Z,97451.06
2022-12-11T14:55:10.631Z,97462.97
2022-12-11T14:57:22.171Z,97459.47
2022-12-11T14:59:32.052Z,97456.84
2022-12-11T15:01:39.322Z,97458.66
2022-12-11T15:03:45.235Z,97464.66
2022-12-11T15:05:53.463Z,97472.28
2022-12-11T15:08:01.276Z,97477.28
2022-12-11T15:10:09.184Z,97473.84
2022-12-11T15:12:16.576Z,97472.97
2022-12-11T15:14:24.003Z,97480.59
2022-12-11T15:16:34.233Z,97481.44
2022-12-11T15:18:43.301Z,97471.16
2022-12-11T15:20:54.028Z,97473.75
2022-12-11T15:23:03.387Z,97480.50
2022-12-11T15:25:22.026Z,97480.53
2022-12-11T15:27:33.496Z,97483.13
2022-12-11T15:29:40.887Z,97474.63
2022-12-11T15:31:46.033Z,97476.38
2022-12-11T15:33:50.617Z,97472.97
2022-12-11T15:36:03.925Z,97478.97
2022-12-11T15:38:09.210Z,97483.19
2022-12-11T15:40:17.492Z,97478.91
2022-12-11T15:42:28.225Z,97481.53
2022-12-11T15:44:33.018Z,97483.19
2022-12-11T15:46:39.000Z,97487.38
2022-12-11T15:48:43.949Z,97493.22
2022-12-11T15:50:48.812Z,97485.50
2022-12-11T15:52:55.622Z,97493.34
2022-12-11T15:55:00.522Z,97496.88
2022-12-11T15:57:10.365Z,97501.16
2022-12-11T15:59:15.347Z,97493.44
2022-12-11T16:01:20.923Z,97496.84
2022-12-11T16:03:26.231Z,97497.69
2022-12-11T16:05:30.768Z,97493.66
2022-12-11T16:07:36.553Z,97496.22
2022-12-11T16:09:41.436Z,97499.53
2022-12-11T16:11:46.371Z,97502.00
2022-12-11T16:13:53.761Z,97504.59
2022-12-11T16:15:58.654Z,97513.13
2022-12-11T16:18:05.212Z,97504.69
2022-12-11T16:20:13.438Z,97499.44
2022-12-11T16:22:19.605Z,97512.19
2022-12-11T16:24:24.471Z,97499.41
2022-12-11T16:26:29.411Z,97501.16
2022-12-11T16:28:34.285Z,97499.44
2022-12-11T16:30:43.537Z,97493.53
2022-12-11T16:32:48.569Z,97493.50
2022-12-11T16:34:54.189Z,97500.31
2022-12-11T16:37:01.498Z,97497.69
2022-12-11T16:39:06.765Z,97494.28
2022-12-11T16:41:11.693Z,97502.00
2022-12-11T16:43:16.722Z,97507.09
2022-12-11T16:45:23.725Z,97502.03
2022-12-11T16:47:32.739Z,97497.78
2022-12-11T16:49:37.537Z,97493.56
2022-12-11T16:51:42.290Z,97492.56
2022-12-11T16:53:47.390Z,97491.69
2022-12-11T16:55:52.529Z,97486.63
2022-12-11T16:57:57.643Z,97490.00
2022-12-11T17:00:02.251Z,97492.66
2022-12-11T17:02:07.032Z,97490.06
2022-12-11T17:04:14.497Z,97499.47
2022-12-11T17:06:20.443Z,97491.75
2022-12-11T17:08:25.469Z,97501.03
2022-12-11T17:10:30.209Z,97497.69
2022-12-11T17:12:37.183Z,97495.09
2022-12-11T17:14:42.217Z,97495.88
2022-12-11T17:16:48.194Z,97491.53
2022-12-11T17:18:53.624Z,97497.50
2022-12-11T17:21:01.040Z,97500.88
2022-12-11T17:23:05.855Z,97495.81
2022-12-11T17:25:12.265Z,97498.31
2022-12-11T17:27:17.291Z,97494.16
2022-12-11T17:29:22.504Z,97494.97
2022-12-11T17:31:27.826Z,97497.56
2022-12-11T17:33:32.623Z,97500.09
2022-12-11T17:35:37.552Z,97509.44
2022-12-11T17:37:45.099Z,97498.41
2022-12-11T17:39:50.119Z,97506.97
2022-12-11T17:41:54.991Z,97516.31
2022-12-11T17:44:00.084Z,97512.06
2022-12-11T17:46:05.656Z,97512.03
2022-12-11T17:48:10.603Z,97515.38
2022-12-11T17:50:15.454Z,97516.19
2022-12-11T17:52:20.280Z,97518.00
2022-12-11T17:54:27.685Z,97523.13
2022-12-11T17:56:34.814Z,97532.47
2022-12-11T17:58:39.640Z,97531.63
2022-12-11T18:00:47.253Z,97531.69
2022-12-11T18:02:52.229Z,97535.13
2022-12-11T18:04:57.237Z,97530.81
2022-12-11T18:07:02.024Z,97533.34
2022-12-11T18:09:07.684Z,97539.34
2022-12-11T18:11:17.852Z,97533.38
2022-12-11T18:13:23.365Z,97530.84
2022-12-11T18:15:28.480Z,97537.56
2022-12-11T18:17:33.325Z,97530.72
2022-12-11T18:19:44.401Z,97528.13
2022-12-11T18:21:51.308Z,97538.31
2022-12-11T18:23:56.290Z,97529.78
2022-12-11T18:26:01.715Z,97539.13
2022-12-11T18:28:10.209Z,97550.22
2022-12-11T18:30:16.977Z,97535.63
2022-12-11T18:32:22.394Z,97535.63
2022-12-11T18:34:27.487Z,97531.44
2022-12-11T18:36:32.808Z,97537.31
2022-12-11T18:38:38.163Z,97532.25
2022-12-11T18:40:43.621Z,97537.28
2022-12-11T18:42:48.623Z,97538.16
2022-12-11T18:44:56.194Z,97535.53
2022-12-11T18:47:01.090Z,97544.03
2022-12-11T18:49:05.890Z,97533.72
2022-12-11T18:51:12.706Z,97530.16
2022-12-11T18:53:18.323Z,97531.81
2022-12-11T18:55:23.232Z,97521.78
2022-12-11T18:57:28.142Z,97529.44
2022-12-11T18:59:32.936Z,97523.38
2022-12-11T19:01:40.415Z,97522.38
2022-12-11T19:03:45.493Z,97515.53
2022-12-11T19:05:50.282Z,97519.81
2022-12-11T19:07:55.122Z,97517.25
2022-12-11T19:09:59.957Z,97525.00
2022-12-11T19:12:05.045Z,97525.00
2022-12-11T19:14:10.641Z,97517.28
2022-12-11T19:16:19.838Z,97518.09
2022-12-11T19:18:27.613Z,97517.28
2022-12-11T19:20:48.735Z,97518.22
2022-12-11T19:22:54.863Z,97520.72
2022-12-11T19:24:59.723Z,97517.28
2022-12-11T19:27:09.967Z,97519.81
2022-12-11T19:29:23.653Z,97518.13
2022-12-11T19:31:30.768Z,97518.31
2022-12-11T19:33:38.375Z,97535.44
2022-12-11T19:35:43.482Z,97526.91
2022-12-11T19:37:50.608Z,97531.03
2022-12-11T19:39:55.652Z,97518.22
2022-12-11T19:42:00.481Z,97518.28
2022-12-11T19:44:05.354Z,97522.63
2022-12-11T19:46:11.580Z,97520.94
2022-12-11T19:48:16.554Z,97529.34
2022-12-11T19:50:23.949Z,97525.03
2022-12-11T19:52:28.845Z,97527.63
2022-12-11T19:54:33.610Z,97523.38
2022-12-11T19:56:38.951Z,97531.88
2022-12-11T19:58:43.866Z,97525.97
2022-12-11T20:00:50.271Z,97526.75
2022-12-11T20:02:55.299Z,97523.38
2022-12-11T20:05:01.188Z,97525.13
2022-12-11T20:07:09.487Z,97525.13
2022-12-11T20:09:15.666Z,97533.59
2022-12-11T20:11:20.834Z,97534.50
2022-12-11T20:13:25.696Z,97527.69
2022-12-11T20:15:31.928Z,97537.84
2022-12-11T20:17:38.100Z,97530.28
2022-12-11T20:19:43.521Z,97537.06
2022-12-11T20:21:48.310Z,97538.91
2022-12-11T20:23:56.025Z,97539.78
2022-12-11T20:26:00.849Z,97540.78
2022-12-11T20:28:05.815Z,97540.81
2022-12-11T20:30:11.739Z,97540.81
2022-12-11T20:32:16.953Z,97543.41
2022-12-11T20:34:22.739Z,97531.44
2022-12-11T20:36:28.360Z,97534.13
2022-12-11T20:38:34.554Z,97534.97
2022-12-11T20:40:42.107Z,97533.28
2022-12-11T20:42:46.947Z,97535.03
2022-12-11T20:44:51.911Z,97534.13
2022-12-11T20:46:56.667Z,97535.69
2022-12-11T20:49:01.802Z,97523.84
2022-12-11T20:51:06.934Z,97534.16
2022-12-11T20:53:13.663Z,97533.38
2022-12-11T20:55:18.562Z,97529.16
2022-12-11T20:57:26.083Z,97530.03
2022-12-11T20:59:30.886Z,97535.19
2022-12-11T21:01:35.995Z,97530.03
2022-12-11T21:03:42.267Z,97543.69
2022-12-11T21:05:49.030Z,97531.78
2022-12-11T21:07:56.342Z,97539.44
2022-12-11T21:10:01.162Z,97538.56
2022-12-11T21:12:06.356Z,97539.31
2022-12-11T21:14:13.875Z,97537.63
2022-12-11T21:16:18.706Z,97541.81
2022-12-11T21:18:23.547Z,97537.69
2022-12-11T21:20:28.693Z,97540.19
2022-12-11T21:22:34.091Z,97537.69
2022-12-11T21:24:39.105Z,97537.69
2022-12-11T21:26:43.722Z,97536.00
2022-12-11T21:28:48.514Z,97530.81
2022-12-11T21:30:55.948Z,97524.00
2022-12-11T21:33:01.262Z,97529.00
2022-12-11T21:35:06.157Z,97527.28
2022-12-11T21:37:11.108Z,97534.16
2022-12-11T21:39:16.875Z,97526.50
2022-12-11T21:41:24.144Z,97525.63
2022-12-11T21:43:28.978Z,97522.25
2022-12-11T21:46:00.467Z,97522.19
2022-12-11T21:48:06.273Z,97525.53
2022-12-11T21:50:11.410Z,97523.88
2022-12-11T21:52:16.360Z,97511.97
2022-12-11T21:54:21.717Z,97524.66
2022-12-11T21:56:30.590Z,97518.72
2022-12-11T21:58:36.048Z,97517.84
2022-12-11T22:00:41.618Z,97514.50
2022-12-11T22:02:46.496Z,97519.56
2022-12-11T22:04:54.032Z,97523.75
2022-12-11T22:06:59.858Z,97519.59
2022-12-11T22:09:05.263Z,97524.72
2022-12-11T22:11:10.461Z,97523.06
2022-12-11T22:13:15.023Z,97522.28
2022-12-11T22:15:19.868Z,97525.69
2022-12-11T22:17:24.740Z,97528.31
2022-12-11T22:19:32.670Z,97528.28
2022-12-11T22:21:41.022Z,97529.09
2022-12-11T22:23:46.570Z,97530.72
2022-12-11T22:25:51.966Z,97529.00
2022-12-11T22:27:56.760Z,97534.97
2022-12-11T22:30:01.571Z,97529.03
2022-12-11T22:32:06.689Z,97540.03
2022-12-11T22:34:11.461Z,97534.97
2022-12-11T22:36:17.898Z,97537.50
2022-12-11T22:38:26.625Z,97526.41
2022-12-11T22:40:32.425Z,97537.41
2022-12-11T22:42:37.239Z,97531.41
2022-12-11T22:44:42.580Z,97530.53
2022-12-11T22:46:50.304Z,97531.44
2022-12-11T22:48:56.043Z,97538.25
2022-12-11T22:51:00.843Z,97531.41
2022-12-11T22:53:06.213Z,97533.94
2022-12-11T22:55:14.872Z,97538.25
2022-12-11T22:57:19.830Z,97534.91
2022-12-11T22:59:24.708Z,97540.00
2022-12-11T23:01:30.818Z,97542.56
2022-12-11T23:03:35.607Z,97541.66
2022-12-11T23:05:43.385Z,97549.31
2022-12-11T23:07:48.275Z,97544.19
2022-12-11T23:09:53.132Z,97539.91
2022-12-11T23:12:01.722Z,97540.72
2022-12-11T23:14:07.539Z,97539.00
2022-12-11T23:16:13.366Z,97538.22
2022-12-11T23:18:18.131Z,97540.75
2022-12-11T23:20:23.287Z,97545.03
2022-12-11T23:22:28.039Z,97537.38
2022-12-11T23:24:34.052Z,97538.22
2022-12-11T23:26:39.644Z,97539.91
2022-12-11T23:28:47.698Z,97543.28
2022-12-11T23:30:52.519Z,97540.72
2022-12-11T23:32:57.368Z,97549.25
2022-12-11T23:35:02.152Z,97554.41
2022-12-11T23:37:07.144Z,97551.78
2022-12-11T23:39:12.356Z,97554.31
2022-12-11T23:41:19.335Z,97544.91
2022-12-11T23:43:24.700Z,97551.66
2022-12-11T23:45:32.170Z,97543.91
2022-12-11T23:47:36.944Z,97544.66
2022-12-11T23:49:41.754Z,97539.56
2022-12-11T23:51:46.576Z,97538.69
2022-12-11T23:53:52.026Z,97544.75
2022-12-11T23:55:57.238Z,97549.00
2022-12-11T23:58:01.777Z,97545.75
